Time;durP1;ratioP1;P1;durP2;ratioP2;P2;SDS_P1;SDS_P2;PMS_P1;PMS_P2;Temp;Humidity;BMP_temperature;BMP_pressure;BME280_temperature;BME280_humidity;BME280_pressure;Samples;Min_cycle;Max_cycle;Signal;HPM_P1;HPM_P2
2023/12/16 00:00:36;;;;;;;;;5.00;5.00;;;;;21.92;51.90;102405.42;111452;1252;19694;-31
2023/12/16 00:03:23;;;;;;;;;5.00;5.00;;;;;21.93;51.71;102407.59;111507;1260;22210;-31
2023/12/16 00:05:52;;;;;;;;;4.00;4.00;;;;;21.94;51.60;102413.77;111481;1253;21536;-31
2023/12/16 00:08:19;;;;;;;;;4.00;4.00;;;;;21.96;51.80;102416.77;111486;1252;18657;-31
2023/12/16 00:10:46;;;;;;;;;4.00;4.00;;;;;21.96;51.51;102417.38;111607;1252;20690;-31
2023/12/16 00:13:14;;;;;;;;;5.00;4.00;;;;;21.94;51.56;102417.81;111440;1267;20176;-31
2023/12/16 00:15:41;;;;;;;;;4.00;4.00;;;;;21.96;51.40;102426.16;111589;1267;19577;-30
2023/12/16 00:18:09;;;;;;;;;4.00;4.00;;;;;21.93;51.69;102422.55;111463;1267;19556;-30
2023/12/16 00:20:36;;;;;;;;;5.00;5.00;;;;;21.94;51.50;102424.98;111526;1267;20137;-31
2023/12/16 00:23:03;;;;;;;;;2.00;2.00;;;;;21.93;51.24;102425.50;111524;1252;19600;-31
2023/12/16 00:25:31;;;;;;;;;4.00;4.00;;;;;21.95;51.12;102430.59;111499;1254;20762;-30
2023/12/16 00:27:58;;;;;;;;;4.00;4.00;;;;;21.93;51.18;102433.99;111525;1267;21512;-31
2023/12/16 00:30:26;;;;;;;;;5.00;4.00;;;;;21.95;51.12;102436.50;111492;1252;19551;-31
2023/12/16 00:32:53;;;;;;;;;5.00;4.00;;;;;21.96;51.04;102438.59;111589;1253;20845;-30
2023/12/16 00:35:20;;;;;;;;;4.00;3.00;;;;;21.96;51.19;102445.48;111488;1268;20164;-31
2023/12/16 00:37:48;;;;;;;;;5.00;4.00;;;;;21.97;51.01;102450.08;111601;1254;19630;-31
2023/12/16 00:40:15;;;;;;;;;3.00;3.00;;;;;21.89;51.22;102446.89;111511;1267;20697;-31
2023/12/16 00:42:43;;;;;;;;;2.00;2.00;;;;;21.82;51.21;102447.77;111640;1267;21507;-31
2023/12/16 00:45:10;;;;;;;;;4.00;4.00;;;;;21.80;51.07;102453.91;111541;1252;19650;-31
2023/12/16 00:47:37;;;;;;;;;;;;;;;21.79;51.20;102452.31;111636;1268;20709;-30
2023/12/16 00:50:05;;;;;;;;;4.50;4.50;;;;;21.78;50.76;102450.23;111498;1260;23114;-31
2023/12/16 00:52:33;;;;;;;;;4.00;4.00;;;;;21.79;51.13;102456.90;111634;1267;18761;-30
2023/12/16 00:55:00;;;;;;;;;5.00;5.00;;;;;21.81;50.79;102463.11;111521;1267;21003;-31
2023/12/16 00:57:28;;;;;;;;;3.00;3.00;;;;;21.81;50.64;102468.19;111657;1252;21524;-31
2023/12/16 00:59:55;;;;;;;;;4.00;2.00;;;;;21.82;50.79;102467.55;111553;1267;18699;-31
2023/12/16 01:02:23;;;;;;;;;4.00;2.00;;;;;21.81;50.85;102464.80;111611;1267;21670;-31
2023/12/16 01:04:51;;;;;;;;;4.00;4.00;;;;;21.79;50.50;102465.37;111512;1253;21757;-31
2023/12/16 01:07:19;;;;;;;;;4.00;2.00;;;;;21.77;50.88;102465.73;111571;1267;19630;-31
2023/12/16 01:09:46;;;;;;;;;4.00;4.00;;;;;21.78;50.80;102468.49;111598;1267;19367;-30
2023/12/16 01:12:13;;;;;;;;;2.00;2.00;;;;;21.76;50.59;102461.90;111615;1252;21570;-30
2023/12/16 01:14:41;;;;;;;;;2.00;2.00;;;;;21.76;50.68;102467.35;111521;1268;19878;-30
2023/12/16 01:17:08;;;;;;;;;2.00;2.00;;;;;21.79;50.27;102468.95;111639;1253;20841;-30
2023/12/16 01:19:36;;;;;;;;;4.00;4.00;;;;;21.79;50.34;102467.05;111455;1268;21484;-31
2023/12/16 01:22:03;;;;;;;;;4.00;4.00;;;;;21.76;50.62;102468.39;111625;1267;19530;-31
2023/12/16 01:24:32;;;;;;;;;2.00;2.00;;;;;21.79;50.26;102479.31;111458;1252;21998;-30
2023/12/16 01:26:59;;;;;;;;;5.00;4.00;;;;;21.81;50.28;102483.14;111529;1267;20601;-31
2023/12/16 01:29:27;;;;;;;;;3.00;3.00;;;;;21.81;50.43;102479.77;111628;1252;19646;-31
2023/12/16 01:31:54;;;;;;;;;2.00;2.00;;;;;21.77;50.11;102474.04;111577;1252;20940;-31
2023/12/16 01:34:22;;;;;;;;;2.00;2.00;;;;;21.76;50.32;102474.19;111625;1253;21571;-31
2023/12/16 01:36:49;;;;;;;;;4.00;2.00;;;;;21.75;50.42;102465.86;111622;1253;18797;-31
2023/12/16 01:39:16;;;;;;;;;4.00;2.00;;;;;21.75;50.23;102467.27;111419;1252;325185;-30
2023/12/16 01:41:44;;;;;;;;;2.00;2.00;;;;;21.75;50.14;102460.78;111629;1253;21604;-30
2023/12/16 01:44:11;;;;;;;;;2.00;2.00;;;;;21.74;50.24;102456.23;111676;1252;20863;-31
2023/12/16 01:46:38;;;;;;;;;2.00;2.00;;;;;21.73;50.28;102450.49;111681;1267;20724;-31
2023/12/16 01:49:06;;;;;;;;;4.00;2.00;;;;;21.73;50.29;102454.48;111561;1253;23175;-31
2023/12/16 01:51:34;;;;;;;;;4.00;4.00;;;;;21.73;50.20;102453.05;111633;1253;19598;-30
2023/12/16 01:54:01;;;;;;;;;2.00;2.00;;;;;21.73;50.06;102457.74;111587;1267;19398;-30
2023/12/16 01:56:30;;;;;;;;;2.00;2.00;;;;;21.74;50.15;102466.16;111691;1252;20134;-31
2023/12/16 01:58:57;;;;;;;;;4.00;2.00;;;;;21.75;49.95;102468.38;111613;1253;20904;-31
2023/12/16 02:01:24;;;;;;;;;2.00;2.00;;;;;21.75;49.78;102464.81;111573;1252;20806;-31
2023/12/16 02:03:52;;;;;;;;;5.00;4.00;;;;;21.73;49.96;102455.87;111671;1265;21635;-31
2023/12/16 02:06:19;;;;;;;;;4.00;4.00;;;;;21.73;49.83;102456.54;111624;1253;19588;-31
2023/12/16 02:08:47;;;;;;;;;4.00;4.00;;;;;21.74;49.79;102456.77;111696;1267;19410;-31
2023/12/16 02:11:14;;;;;;;;;4.00;4.00;;;;;21.74;49.84;102454.98;111642;1252;21609;-31
2023/12/16 02:13:41;;;;;;;;;2.00;2.00;;;;;21.73;49.76;102457.63;111667;1268;19580;-31
2023/12/16 02:16:10;;;;;;;;;1.50;1.50;;;;;21.73;49.72;102460.90;111673;1260;20773;-30
2023/12/16 02:18:37;;;;;;;;;2.00;2.00;;;;;21.73;49.86;102466.07;111623;1252;23144;-31
2023/12/16 02:21:05;;;;;;;;;5.00;4.00;;;;;21.73;49.60;102465.68;111560;1267;19805;-31
2023/12/16 02:23:32;;;;;;;;;2.00;2.00;;;;;21.72;49.82;102464.30;111644;1252;20798;-31
2023/12/16 02:26:00;;;;;;;;;2.00;2.00;;;;;21.72;49.88;102463.05;111602;1252;21563;-30
2023/12/16 02:28:27;;;;;;;;;4.00;2.00;;;;;21.71;49.90;102466.42;111645;1267;18759;-31
2023/12/16 02:30:55;;;;;;;;;2.00;2.00;;;;;21.71;49.79;102455.39;111590;1252;20747;-31
2023/12/16 02:33:22;;;;;;;;;2.00;1.00;;;;;21.71;49.87;102454.48;111602;1252;21946;-30
2023/12/16 02:35:50;;;;;;;;;2.00;2.00;;;;;21.71;49.62;102461.89;111529;1267;20691;-31
2023/12/16 02:38:17;;;;;;;;;3.00;2.00;;;;;21.70;49.82;102465.52;111587;1267;19528;-30
2023/12/16 02:40:45;;;;;;;;;2.00;2.00;;;;;21.70;49.79;102468.13;111565;1252;21611;-31
2023/12/16 02:43:12;;;;;;;;;2.00;2.00;;;;;21.71;49.71;102468.69;111607;1253;19700;-31
2023/12/16 02:45:40;;;;;;;;;3.00;3.00;;;;;21.71;49.71;102472.13;111586;1267;20833;-31
2023/12/16 02:48:07;;;;;;;;;2.00;2.00;;;;;21.71;49.67;102469.63;111634;1267;20379;-31
2023/12/16 02:50:34;;;;;;;;;2.00;2.00;;;;;21.71;49.81;102472.56;111620;1267;18549;-31
2023/12/16 02:53:02;;;;;;;;;2.00;2.00;;;;;21.72;49.60;102475.27;111542;1267;19369;-31
2023/12/16 02:55:29;;;;;;;;;2.00;2.00;;;;;21.71;49.41;102473.18;111649;1252;21582;-31
2023/12/16 02:57:57;;;;;;;;;2.00;2.00;;;;;21.72;49.46;102470.36;111444;1253;19856;-30
2023/12/16 03:00:24;;;;;;;;;2.00;2.00;;;;;21.72;49.67;102477.12;111674;1252;20869;-31
2023/12/16 03:02:51;;;;;;;;;4.50;4.00;;;;;21.71;49.29;102479.34;111499;1252;21618;-31
2023/12/16 03:05:19;;;;;;;;;2.00;2.00;;;;;21.71;49.59;102486.15;111670;1255;19691;-31
2023/12/16 03:07:46;;;;;;;;;2.00;2.00;;;;;21.71;49.58;102491.06;111496;1268;19415;-31
2023/12/16 03:10:14;;;;;;;;;2.00;2.00;;;;;21.70;49.60;102490.45;111682;1267;20171;-31
2023/12/16 03:12:41;;;;;;;;;2.00;2.00;;;;;21.71;49.36;102498.92;111469;1252;21106;-31
2023/12/16 03:15:09;;;;;;;;;4.50;2.00;;;;;21.71;49.30;102501.42;111690;1267;20903;-31
2023/12/16 03:17:36;;;;;;;;;2.00;2.00;;;;;21.71;49.44;102508.86;111362;1253;21489;-30
2023/12/16 03:20:05;;;;;;;;;2.00;2.00;;;;;21.69;49.33;102508.96;111684;1252;19679;-31
2023/12/16 03:22:33;;;;;;;;;2.00;2.00;;;;;21.69;49.47;102514.80;111731;1252;21468;-31
2023/12/16 03:25:00;;;;;;;;;2.00;2.00;;;;;21.70;49.43;102515.41;111534;1253;21477;-30
2023/12/16 03:27:27;;;;;;;;;2.00;2.00;;;;;21.69;49.45;102514.75;111511;1267;19848;-31
2023/12/16 03:29:55;;;;;;;;;1.00;1.00;;;;;21.69;49.48;102515.52;111556;1267;19369;-31
2023/12/16 03:32:22;;;;;;;;;2.00;2.00;;;;;21.68;49.39;102513.14;111462;1253;21787;-31
2023/12/16 03:34:50;;;;;;;;;2.00;2.00;;;;;21.69;49.51;102510.70;111560;1252;19714;-31
2023/12/16 03:37:17;;;;;;;;;2.00;2.00;;;;;21.70;49.20;102508.45;111445;1253;20784;-30
2023/12/16 03:39:45;;;;;;;;;2.00;2.00;;;;;21.69;49.45;102509.55;111569;1252;21591;-31
2023/12/16 03:42:12;;;;;;;;;1.00;1.00;;;;;21.69;49.52;102507.96;111481;1253;19627;-31
2023/12/16 03:44:41;;;;;;;;;1.00;1.00;;;;;21.68;49.21;102509.98;111610;1253;20785;-31
2023/12/16 03:47:09;;;;;;;;;2.00;2.00;;;;;21.68;49.30;102513.73;111694;1252;22222;-31
2023/12/16 03:49:36;;;;;;;;;2.00;2.00;;;;;21.67;49.31;102513.06;111491;1253;19747;-31
2023/12/16 03:52:04;;;;;;;;;2.00;2.00;;;;;21.67;49.28;102519.61;111709;1267;21905;-31
2023/12/16 03:54:31;;;;;;;;;2.00;2.00;;;;;21.68;49.45;102520.82;111480;1253;21573;-30
2023/12/16 03:56:58;;;;;;;;;2.00;2.00;;;;;21.66;49.28;102524.61;111712;1252;19683;-31
2023/12/16 03:59:26;;;;;;;;;2.00;2.00;;;;;21.66;49.17;102534.05;111455;1253;20920;-31
2023/12/16 04:01:53;;;;;;;;;2.00;2.00;;;;;21.66;49.37;102535.73;111610;1254;23099;-31
2023/12/16 04:04:21;;;;;;;;;2.00;2.00;;;;;21.68;49.24;102541.21;111462;1252;19671;-31
2023/12/16 04:06:48;;;;;;;;;2.00;2.00;;;;;21.65;49.18;102539.10;111480;1260;20738;-31
2023/12/16 04:09:15;;;;;;;;;2.00;2.00;;;;;21.65;49.20;102541.16;111487;1252;21932;-31
2023/12/16 04:11:43;;;;;;;;;2.00;2.00;;;;;21.66;49.34;102539.21;111461;1267;18679;-31
2023/12/16 04:14:10;;;;;;;;;4.00;2.00;;;;;21.65;49.06;102530.67;111494;1253;20860;-31
2023/12/16 04:16:38;;;;;;;;;4.00;4.00;;;;;21.65;49.05;102528.95;111488;1267;21435;-31
2023/12/16 04:19:05;;;;;;;;;1.00;1.00;;;;;21.65;48.89;102528.49;111503;1252;20034;-31
2023/12/16 04:21:33;;;;;;;;;2.00;2.00;;;;;21.65;49.18;102534.27;111501;1267;20690;-31
2023/12/16 04:24:00;;;;;;;;;1.50;1.50;;;;;21.64;49.06;102534.00;111497;1253;21609;-31
2023/12/16 04:26:28;;;;;;;;;2.00;2.00;;;;;21.66;49.19;102536.33;111514;1267;19879;-31
2023/12/16 04:28:55;;;;;;;;;2.00;2.00;;;;;21.66;49.19;102534.81;111527;1253;20778;-31
2023/12/16 04:31:22;;;;;;;;;4.00;2.00;;;;;21.65;49.08;102537.52;111504;1267;21465;-31
2023/12/16 04:33:52;;;;;;;;;2.00;2.00;;;;;21.65;49.31;102535.42;111560;1267;19553;-30
2023/12/16 04:36:19;;;;;;;;;2.00;2.00;;;;;21.65;48.95;102531.39;111589;1267;20909;-30
2023/12/16 04:38:47;;;;;;;;;5.00;4.00;;;;;21.65;49.18;102535.55;111532;1253;21406;-31
2023/12/16 04:41:14;;;;;;;;;4.00;2.00;;;;;21.64;48.98;102535.67;111619;1252;18729;-31
2023/12/16 04:43:42;;;;;;;;;2.00;2.00;;;;;21.64;49.13;102534.05;111574;1252;21167;-30
2023/12/16 04:46:09;;;;;;;;;1.00;1.00;;;;;21.64;49.03;102534.33;111565;1253;21725;-30
2023/12/16 04:48:37;;;;;;;;;2.00;2.00;;;;;21.62;49.03;102522.00;111608;1252;18874;-31
2023/12/16 04:51:05;;;;;;;;;1.00;1.00;;;;;21.63;49.03;102527.35;111515;1253;20944;-31
2023/12/16 04:53:32;;;;;;;;;2.00;2.00;;;;;21.64;49.02;102532.02;111523;1253;21537;-31
2023/12/16 04:56:00;;;;;;;;;4.00;2.00;;;;;21.64;48.96;102539.99;111543;1260;20979;-31
2023/12/16 04:58:27;;;;;;;;;2.00;2.00;;;;;21.64;49.08;102544.45;111552;1253;20934;-31
2023/12/16 05:00:55;;;;;;;;;1.00;1.00;;;;;21.63;49.01;102550.59;111571;1252;21557;-30
2023/12/16 05:03:22;;;;;;;;;2.00;2.00;;;;;21.64;48.93;102553.77;111527;1267;18615;-31
2023/12/16 05:05:50;;;;;;;;;4.00;4.00;;;;;21.63;48.76;102546.83;111608;1252;20548;-31
2023/12/16 05:08:19;;;;;;;;;2.00;2.00;;;;;21.62;48.81;102539.49;111583;1252;21623;-31
2023/12/16 05:10:47;;;;;;;;;2.00;2.00;;;;;21.63;49.05;102537.29;111623;1266;19714;-30
2023/12/16 05:13:15;;;;;;;;;2.00;2.00;;;;;21.62;49.13;102538.35;111653;1267;19561;-30
2023/12/16 05:15:42;;;;;;;;;2.00;2.00;;;;;21.63;49.05;102539.90;111648;1253;21612;-30
2023/12/16 05:18:09;;;;;;;;;3.00;2.00;;;;;21.62;49.00;102537.42;111530;1253;19537;-30
2023/12/16 05:20:37;;;;;;;;;2.00;2.00;;;;;21.61;49.06;102535.98;111642;1267;20746;-30
2023/12/16 05:23:04;;;;;;;;;1.00;1.00;;;;;21.61;48.69;102534.30;111505;1253;21598;-31
2023/12/16 05:25:32;;;;;;;;;4.00;3.00;;;;;21.62;48.70;102534.92;111607;1252;19650;-30
2023/12/16 05:27:59;;;;;;;;;2.00;2.00;;;;;21.63;48.78;102535.15;111509;1268;19403;-31
2023/12/16 05:30:26;;;;;;;;;1.00;1.00;;;;;21.61;48.78;102528.34;111626;1252;21648;-31
2023/12/16 05:32:54;;;;;;;;;2.00;2.00;;;;;21.60;48.96;102523.91;111536;1260;19556;-31
2023/12/16 05:35:21;;;;;;;;;2.00;2.00;;;;;21.59;48.68;102514.39;111554;1267;19405;-31
2023/12/16 05:37:49;;;;;;;;;2.00;2.00;;;;;21.61;48.67;102512.15;111565;1253;20329;-31
2023/12/16 05:40:16;;;;;;;;;2.00;1.50;;;;;21.60;48.83;102516.65;111584;1253;19654;-31
2023/12/16 05:42:44;;;;;;;;;1.00;1.00;;;;;21.60;48.56;102516.06;111580;1267;20771;-30
2023/12/16 05:45:13;;;;;;;;;2.00;2.00;;;;;21.60;48.70;102522.44;111536;1267;20148;-31
2023/12/16 05:47:40;;;;;;;;;2.00;2.00;;;;;21.60;48.92;102523.83;111496;1253;19668;-31
2023/12/16 05:50:08;;;;;;;;;2.00;2.00;;;;;21.60;48.65;102528.15;111628;1267;21832;-31
2023/12/16 05:52:35;;;;;;;;;2.00;2.00;;;;;21.60;48.67;102526.64;111489;1253;22598;-30
2023/12/16 05:55:03;;;;;;;;;1.00;1.00;;;;;21.60;48.74;102527.52;111651;1267;18785;-31
2023/12/16 05:57:30;;;;;;;;;2.00;1.00;;;;;21.60;48.73;102527.06;111495;1267;20645;-31
2023/12/16 05:59:58;;;;;;;;;1.50;1.50;;;;;21.60;48.54;102530.49;111677;1253;21730;-31
2023/12/16 06:02:26;;;;;;;;;2.00;2.00;;;;;21.60;48.39;102537.75;111462;1252;20883;-31
2023/12/16 06:04:53;;;;;;;;;2.00;2.00;;;;;21.60;48.60;102542.38;111724;1267;19994;-31
2023/12/16 06:07:21;;;;;;;;;2.00;2.00;;;;;21.61;48.53;102549.66;111469;1253;20204;-31
2023/12/16 06:09:48;;;;;;;;;1.00;1.00;;;;;21.62;48.32;102556.40;111680;1267;18948;-30
2023/12/16 06:12:15;;;;;;;;;1.00;1.00;;;;;21.61;48.47;102561.83;111444;1253;19481;-31
2023/12/16 06:14:43;;;;;;;;;2.00;2.00;;;;;21.60;48.59;102559.14;111685;1267;20125;-31
2023/12/16 06:17:10;;;;;;;;;1.00;1.00;;;;;21.61;48.58;102568.37;111324;1268;20974;-31
2023/12/16 06:19:38;;;;;;;;;2.00;1.00;;;;;21.60;48.52;102568.73;111665;1267;19697;-30
2023/12/16 06:22:05;;;;;;;;;2.00;2.00;;;;;21.59;48.64;102571.38;111466;1253;21548;-31
2023/12/16 06:24:32;;;;;;;;;1.00;1.00;;;;;21.61;48.62;102578.19;111606;1260;18933;-30
2023/12/16 06:27:00;;;;;;;;;1.00;1.00;;;;;21.62;48.30;102586.39;111493;1267;19484;-31
2023/12/16 06:29:27;;;;;;;;;1.50;1.50;;;;;21.62;48.45;102588.20;111593;1253;22752;-31
2023/12/16 06:31:55;;;;;;;;;2.00;1.50;;;;;21.60;48.49;102585.58;111544;1252;19639;-31
2023/12/16 06:34:22;;;;;;;;;2.00;2.00;;;;;21.59;48.57;102589.70;111651;1267;20752;-31
2023/12/16 06:36:49;;;;;;;;;1.00;1.00;;;;;21.61;48.40;102592.58;111655;1252;21623;-31
2023/12/16 06:39:17;;;;;;;;;2.00;2.00;;;;;21.59;48.15;102589.05;111696;1267;18679;-31
2023/12/16 06:41:44;;;;;;;;;1.00;1.00;;;;;21.58;48.60;102586.73;111661;1253;20841;-31
2023/12/16 06:44:12;;;;;;;;;2.00;2.00;;;;;21.59;48.38;102584.46;111689;1260;21551;-31
2023/12/16 06:46:39;;;;;;;;;2.00;2.00;;;;;21.59;48.60;102577.88;111621;1267;18716;-31
2023/12/16 06:49:07;;;;;;;;;5.00;4.00;;;;;21.59;48.55;102574.27;111697;1252;19737;-31
2023/12/16 06:51:34;;;;;;;;;1.00;1.00;;;;;21.58;48.47;102570.21;111657;1253;21651;-30
2023/12/16 06:54:01;;;;;;;;;2.00;2.00;;;;;21.58;48.33;102566.27;111628;1252;20862;-31
2023/12/16 06:56:29;;;;;;;;;1.00;1.00;;;;;21.57;48.27;102558.44;111655;1268;20847;-30
2023/12/16 06:58:56;;;;;;;;;4.00;2.00;;;;;21.56;48.51;102555.38;111517;1258;21610;-30
2023/12/16 07:01:24;;;;;;;;;1.50;1.50;;;;;21.57;48.42;102562.34;111702;1267;18748;-31
2023/12/16 07:03:51;;;;;;;;;4.00;2.00;;;;;21.57;48.51;102560.14;111423;1268;19329;-31
2023/12/16 07:06:19;;;;;;;;;2.00;2.00;;;;;21.58;48.52;102565.06;111663;1267;21386;-30
2023/12/16 07:08:47;;;;;;;;;1.00;1.00;;;;;21.57;48.23;102567.78;111675;1252;19703;-31
2023/12/16 07:11:14;;;;;;;;;2.00;2.00;;;;;21.57;48.22;102564.11;111669;1253;20772;-31
2023/12/16 07:13:42;;;;;;;;;2.00;2.00;;;;;21.57;48.42;102566.96;111679;1252;21650;-31
2023/12/16 07:16:09;;;;;;;;;2.00;2.00;;;;;21.57;48.13;102563.35;111622;1253;19678;-30
2023/12/16 07:18:37;;;;;;;;;2.00;2.00;;;;;21.57;48.38;102562.34;111544;1267;19379;-30
2023/12/16 07:21:04;;;;;;;;;2.00;2.00;;;;;21.58;48.16;102570.26;111648;1254;21822;-30
2023/12/16 07:23:33;;;;;;;;;;;;;;;21.58;48.45;102573.48;111479;1254;19586;-31
2023/12/16 07:26:00;;;;;;;;;2.00;2.00;;;;;21.57;48.37;102570.40;111494;1252;20437;-31
2023/12/16 07:28:28;;;;;;;;;2.00;2.00;;;;;21.57;48.22;102570.14;111731;1267;22868;-31
2023/12/16 07:30:57;;;;;;;;;1.00;1.00;;;;;21.57;48.30;102560.20;111482;1267;19816;-31
2023/12/16 07:33:24;;;;;;;;;1.00;1.00;;;;;21.58;48.33;102560.94;111601;1252;21995;-31
2023/12/16 07:35:52;;;;;;;;;2.00;2.00;;;;;21.56;48.40;102553.13;111495;1267;21613;-31
2023/12/16 07:38:19;;;;;;;;;1.50;1.50;;;;;21.65;48.35;102546.38;111635;1252;19657;-31
2023/12/16 07:40:47;;;;;;;;;1.00;1.00;;;;;21.63;48.01;102552.98;111414;1252;20948;-31
2023/12/16 07:43:14;;;;;;;;;1.00;1.00;;;;;21.60;47.97;102541.68;111637;1253;21986;-31
2023/12/16 07:45:41;;;;;;;;;3.00;2.00;;;;;21.60;48.41;102558.31;111471;1267;18693;-30
2023/12/16 07:48:09;;;;;;;;;1.00;1.00;;;;;21.62;48.43;102562.23;111702;1253;22080;-31
2023/12/16 07:50:36;;;;;;;;;1.00;1.00;;;;;21.67;48.56;102570.05;111487;1253;21608;-31
2023/12/16 07:53:04;;;;;;;;;3.00;2.00;;;;;21.72;48.77;102579.30;111705;1253;19645;-31
2023/12/16 07:55:31;;;;;;;;;4.00;4.00;;;;;21.75;48.68;102584.78;111475;1267;19388;-31
2023/12/16 07:57:59;;;;;;;;;2.00;2.00;;;;;21.66;48.44;102583.07;111707;1252;21611;-31
2023/12/16 08:00:27;;;;;;;;;4.00;4.00;;;;;21.66;48.04;102576.14;111484;1252;20903;-31
2023/12/16 08:02:54;;;;;;;;;2.00;2.00;;;;;21.65;49.34;102572.84;111618;1267;20723;-31
2023/12/16 08:05:22;;;;;;;;;4.50;4.00;;;;;21.66;49.32;102577.73;111497;1267;21482;-31
2023/12/16 08:07:50;;;;;;;;;4.00;4.00;;;;;21.75;49.06;102573.75;111627;1268;19605;-30
2023/12/16 08:10:17;;;;;;;;;6.33;6.33;;;;;21.73;49.51;102572.18;111432;1268;19456;-30
2023/12/16 08:12:45;;;;;;;;;4.00;4.00;;;;;21.79;50.47;102576.33;111562;1267;20368;-30
2023/12/16 08:15:12;;;;;;;;;4.00;3.00;;;;;21.81;50.95;102574.20;111464;1253;19633;-30
2023/12/16 08:17:40;;;;;;;;;2.00;2.00;;;;;21.83;51.99;102573.98;111559;1252;21197;-31
2023/12/16 08:20:07;;;;;;;;;3.00;3.00;;;;;21.81;52.10;102576.92;111487;1267;20018;-30
2023/12/16 08:22:35;;;;;;;;;5.00;5.00;;;;;21.82;51.55;102583.84;111576;1259;19557;-31
2023/12/16 08:25:02;;;;;;;;;4.00;4.00;;;;;21.82;51.34;102581.10;111408;1268;20732;-31
2023/12/16 08:27:30;;;;;;;;;7.50;6.00;;;;;21.82;51.17;102577.83;111591;1267;22082;-31
2023/12/16 08:29:57;;;;;;;;;7.00;7.00;;;;;21.76;50.75;102577.92;111484;1268;20691;-31
2023/12/16 08:32:24;;;;;;;;;8.00;8.00;;;;;21.74;49.88;102573.09;111568;1267;20708;-31
2023/12/16 08:34:52;;;;;;;;;7.00;5.00;;;;;21.71;49.92;102575.77;111527;1252;22953;-31
2023/12/16 08:37:19;;;;;;;;;7.00;5.00;;;;;21.71;49.99;102570.70;111603;1267;19481;-31
2023/12/16 08:39:47;;;;;;;;;7.00;5.67;;;;;21.67;49.59;102570.01;111472;1268;20702;-30
2023/12/16 08:42:14;;;;;;;;;7.50;7.00;;;;;21.72;49.47;102570.14;111641;1267;21893;-30
2023/12/16 08:44:42;;;;;;;;;8.00;7.00;;;;;21.80;49.27;102571.54;111558;1267;20671;-31
2023/12/16 08:47:09;;;;;;;;;7.00;5.00;;;;;21.85;48.99;102558.53;111650;1267;20662;-30
2023/12/16 08:49:36;;;;;;;;;5.00;5.00;;;;;21.82;48.83;102556.38;111609;1253;21299;-31
2023/12/16 08:52:04;;;;;;;;;5.00;5.00;;;;;21.84;48.89;102555.27;111660;1254;19855;-30
2023/12/16 08:54:31;;;;;;;;;7.00;7.00;;;;;21.79;48.50;102566.17;111542;1267;21143;-31
2023/12/16 08:57:01;;;;;;;;;8.00;7.00;;;;;21.77;47.63;102564.65;111539;1252;21600;-31
2023/12/16 08:59:29;;;;;;;;;8.00;7.00;;;;;21.74;47.11;102571.48;111478;1253;19886;-31
2023/12/16 09:01:56;;;;;;;;;8.00;8.00;;;;;21.80;47.71;102582.02;111458;1253;20781;-31
2023/12/16 09:04:23;;;;;;;;;7.00;7.00;;;;;21.80;47.70;102585.41;111471;1267;21579;-31
2023/12/16 09:06:51;;;;;;;;;7.00;5.00;;;;;21.81;47.81;102587.41;111456;1252;19936;-31
2023/12/16 09:09:18;;;;;;;;;8.00;8.00;;;;;21.81;47.76;102583.98;111508;1267;19727;-31
2023/12/16 09:11:46;;;;;;;;;11.00;8.00;;;;;21.73;47.28;102586.15;111471;1267;21479;-31
2023/12/16 09:14:13;;;;;;;;;8.00;8.00;;;;;21.65;47.03;102578.51;111530;1252;19662;-31
2023/12/16 09:16:40;;;;;;;;;7.00;5.00;;;;;21.73;45.99;102577.19;111364;1267;19409;-31
2023/12/16 09:19:08;;;;;;;;;8.00;8.00;;;;;21.76;46.30;102576.30;111413;1268;20218;-31
2023/12/16 09:21:36;;;;;;;;;10.00;7.00;;;;;21.70;46.94;102581.97;111249;1254;19689;-31
2023/12/16 09:24:03;;;;;;;;;7.00;7.00;;;;;21.67;46.65;102584.69;111269;1269;21907;-31
2023/12/16 09:26:31;;;;;;;;;7.00;7.00;;;;;21.68;47.04;102581.66;111304;1253;20170;-31
2023/12/16 09:28:59;;;;;;;;;7.00;7.00;;;;;21.78;47.29;102577.11;111294;1252;19673;-30
2023/12/16 09:31:27;;;;;;;;;7.00;5.00;;;;;21.76;47.86;102571.72;111463;1253;20945;-31
2023/12/16 09:33:54;;;;;;;;;7.50;7.50;;;;;21.83;48.77;102574.52;111226;1269;20290;-30
2023/12/16 09:36:26;;;;;;;;;5.00;5.00;;;;;21.83;49.10;102573.92;111486;1253;19717;-31
2023/12/16 09:38:54;;;;;;;;;7.00;7.00;;;;;21.82;48.88;102572.59;111313;1253;20947;-31
2023/12/16 09:41:22;;;;;;;;;8.00;7.50;;;;;21.83;48.91;102578.66;111467;1269;21665;-31
2023/12/16 09:43:49;;;;;;;;;8.00;7.00;;;;;21.83;48.78;102578.50;111236;1254;19669;-31
2023/12/16 09:46:17;;;;;;;;;7.00;7.00;;;;;21.77;48.61;102573.55;111513;1253;19383;-31
2023/12/16 09:48:44;;;;;;;;;10.00;7.00;;;;;21.81;48.58;102573.82;111296;1254;21602;-32
2023/12/16 09:51:12;;;;;;;;;8.00;7.00;;;;;21.84;48.70;102569.58;111510;1253;19645;-31
2023/12/16 09:53:39;;;;;;;;;5.00;5.00;;;;;21.83;48.64;102569.61;111323;1254;20733;-31
2023/12/16 09:56:06;;;;;;;;;7.00;7.00;;;;;21.81;48.70;102570.38;111487;1253;20182;-32
2023/12/16 09:58:34;;;;;;;;;5.00;5.00;;;;;21.77;49.12;102565.36;111333;1260;19642;-31
2023/12/16 10:01:01;;;;;;;;;5.00;5.00;;;;;21.73;49.08;102567.77;111400;1268;20625;-31
2023/12/16 10:03:29;;;;;;;;;5.00;5.00;;;;;21.76;49.02;102564.80;111459;1253;22736;-31
2023/12/16 10:05:56;;;;;;;;;5.00;5.00;;;;;21.75;48.89;102561.20;111571;1262;18927;-31
2023/12/16 10:08:24;;;;;;;;;5.00;5.00;;;;;21.76;49.34;102551.75;111388;1268;20885;-31
2023/12/16 10:10:51;;;;;;;;;5.00;5.00;;;;;21.75;49.74;102548.83;111484;1253;21575;-32
2023/12/16 10:13:19;;;;;;;;;5.00;5.00;;;;;21.77;49.74;102554.49;111427;1254;19592;-31
2023/12/16 10:15:47;;;;;;;;;5.00;5.00;;;;;21.79;49.94;102552.87;111358;1254;20855;-31
2023/12/16 10:18:14;;;;;;;;;7.00;5.00;;;;;21.83;49.60;102546.38;111511;1259;20183;-31
2023/12/16 10:20:42;;;;;;;;;4.00;4.00;;;;;21.86;49.95;102544.92;111680;1267;18875;-32
2023/12/16 10:23:10;;;;;;;;;4.00;4.00;;;;;21.85;50.02;102546.43;111602;1253;20753;-32
2023/12/16 10:25:38;;;;;;;;;4.00;4.00;;;;;21.84;49.89;102549.45;111736;1267;21502;-32
2023/12/16 10:28:05;;;;;;;;;4.00;4.00;;;;;21.86;49.75;102553.86;111544;1260;18725;-31
2023/12/16 10:30:33;;;;;;;;;8.67;8.00;;;;;21.85;49.80;102553.12;111784;1253;20613;-32
2023/12/16 10:33:02;;;;;;;;;7.00;5.00;;;;;21.81;50.16;102551.38;111507;1267;20342;-32
2023/12/16 10:35:29;;;;;;;;;5.00;5.00;;;;;21.83;49.91;102559.86;111591;1252;20907;-31
2023/12/16 10:37:57;;;;;;;;;5.00;5.00;;;;;21.87;50.24;102555.48;111729;1253;20802;-32
2023/12/16 10:40:24;;;;;;;;;4.00;4.00;;;;;21.88;50.09;102547.43;111611;1252;21601;-32
2023/12/16 10:42:52;;;;;;;;;6.33;4.67;;;;;21.88;50.50;102550.33;111689;1253;19692;-31
2023/12/16 10:45:19;;;;;;;;;6.00;5.00;;;;;21.82;50.22;102550.42;111584;1267;19348;-32
2023/12/16 10:47:48;;;;;;;;;4.67;4.00;;;;;21.81;50.14;102550.23;111679;1267;21375;-33
2023/12/16 10:50:15;;;;;;;;;7.00;6.00;;;;;21.76;50.10;102553.67;111505;1267;19630;-32
2023/12/16 10:52:43;;;;;;;;;7.00;7.00;;;;;21.77;49.51;102553.36;111761;1265;21893;-32
2023/12/16 10:55:10;;;;;;;;;5.00;5.00;;;;;21.76;49.02;102551.16;111465;1267;21693;-32
2023/12/16 10:57:38;;;;;;;;;4.00;4.00;;;;;21.77;48.88;102542.29;111727;1252;18833;-32
2023/12/16 11:00:05;;;;;;;;;8.00;7.00;;;;;21.78;48.61;102539.16;111498;1267;22178;-32
2023/12/16 11:02:34;;;;;;;;;8.00;7.00;;;;;21.74;48.55;102545.14;111758;1263;21586;-32
2023/12/16 11:05:03;;;;;;;;;7.50;7.50;;;;;21.65;47.97;102540.02;111464;1267;18699;-32
2023/12/16 11:07:30;;;;;;;;;4.00;4.00;;;;;21.61;47.74;102545.24;111433;1267;20758;-32
2023/12/16 11:09:58;;;;;;;;;5.00;5.00;;;;;21.57;48.34;102545.14;111783;1267;21904;-32
2023/12/16 11:12:25;;;;;;;;;6.00;6.00;;;;;21.52;47.33;102540.39;111508;1267;18651;-32
2023/12/16 11:14:55;;;;;;;;;8.00;8.00;;;;;21.48;46.89;102538.52;111754;1252;19265;-32
2023/12/16 11:17:22;;;;;;;;;7.00;7.00;;;;;21.46;46.55;102535.83;111673;1267;20166;-32